createdAt,value
2016-07-28T00:00:31.890Z,85.83
2016-07-28T00:01:31.881Z,86.51
2016-07-28T00:02:31.872Z,85.83
2016-07-28T00:03:31.866Z,85.54
2016-07-28T00:04:31.858Z,85.83
2016-07-28T00:05:31.849Z,86.31
2016-07-28T00:06:32.547Z,86.22
2016-07-28T00:07:31.830Z,86.51
2016-07-28T00:08:31.822Z,85.83
2016-07-28T00:09:31.818Z,85.83
2016-07-28T00:10:31.808Z,85.93
2016-07-28T00:11:31.797Z,86.02
2016-07-28T00:12:31.790Z,86.51
2016-07-28T00:13:32.487Z,86.12
2016-07-28T00:14:31.773Z,86.36
2016-07-28T00:15:31.776Z,86.08
2016-07-28T00:16:31.761Z,86.6
2016-07-28T00:17:31.750Z,86.08
2016-07-28T00:18:32.447Z,86.22
2016-07-28T00:19:31.732Z,86.22
2016-07-28T00:20:32.432Z,86.46
2016-07-28T00:21:31.718Z,86.75
2016-07-28T00:22:32.420Z,86.27
2016-07-28T00:23:32.404Z,86.6
2016-07-28T00:24:31.690Z,86.22
2016-07-28T00:25:32.391Z,86.36
2016-07-28T00:26:31.666Z,86.51
2016-07-28T00:27:31.668Z,86.69
2016-07-28T00:28:31.658Z,86.22
2016-07-28T00:29:31.661Z,86.22
2016-07-28T00:30:31.643Z,86.18
2016-07-28T00:31:31.633Z,86.22
2016-07-28T00:32:32.334Z,86.46
2016-07-28T00:33:31.622Z,86.08
2016-07-28T00:34:32.316Z,86.41
2016-07-28T00:35:31.604Z,86.08
2016-07-28T00:36:32.302Z,86.27
2016-07-28T00:37:32.290Z,86.27
2016-07-28T00:38:31.578Z,86.12
2016-07-28T00:39:32.273Z,86.41
2016-07-28T00:40:32.268Z,86.41
2016-07-28T00:41:31.540Z,86.31
2016-07-28T00:42:31.542Z,86.31
2016-07-28T00:43:31.535Z,86.75
2016-07-28T00:44:31.525Z,86.22
2016-07-28T00:45:32.224Z,86.31
2016-07-28T00:46:31.508Z,86.18
2016-07-28T00:47:31.705Z,86.36
2016-07-28T00:48:32.202Z,86.31
2016-07-28T00:49:32.193Z,86.12
2016-07-28T00:50:31.487Z,86.51
2016-07-28T00:51:31.469Z,86.99
2016-07-28T00:52:31.462Z,85.98
2016-07-28T00:53:32.159Z,86.36
2016-07-28T00:54:31.443Z,86.31
2016-07-28T00:55:32.143Z,86.22
2016-07-28T00:57:31.420Z,86.6
2016-07-28T00:58:31.410Z,86.02
2016-07-28T00:59:32.108Z,86.08
2016-07-28T01:00:31.399Z,86.56
2016-07-28T01:01:31.389Z,85.93
2016-07-28T01:02:32.084Z,85.98
2016-07-28T01:03:32.077Z,86.85
2016-07-28T01:04:31.360Z,86.85
2016-07-28T01:05:31.351Z,86.65
2016-07-28T01:06:32.051Z,86.08
2016-07-28T01:07:31.340Z,85.98
2016-07-28T01:08:31.332Z,86.31
2016-07-28T01:09:32.028Z,86.27
2016-07-28T01:10:32.020Z,86.18
2016-07-28T01:12:31.298Z,86.08
2016-07-28T01:13:31.286Z,86.27
2016-07-28T01:14:31.986Z,86.18
2016-07-28T01:15:31.974Z,86.46
2016-07-28T01:16:31.972Z,86.18
2016-07-28T01:17:31.964Z,86.18
2016-07-28T01:18:31.245Z,86.08
2016-07-28T01:19:31.238Z,86.79
2016-07-28T01:20:31.938Z,86.27
2016-07-28T01:21:31.221Z,86.18
2016-07-28T01:22:31.922Z,86.65
2016-07-28T01:23:31.205Z,86.65
2016-07-28T01:24:31.197Z,86.02
2016-07-28T01:25:31.895Z,86.18
2016-07-28T01:27:31.175Z,86.36
2016-07-28T01:28:31.164Z,86.27
2016-07-28T01:29:31.864Z,86.89
2016-07-28T01:30:31.855Z,86.99
2016-07-28T01:31:31.140Z,85.98
2016-07-28T01:32:31.130Z,86.18
2016-07-28T01:33:31.122Z,86.08
2016-07-28T01:34:31.819Z,86.18
2016-07-28T01:35:31.812Z,85.98
2016-07-28T01:36:31.800Z,86.51
2016-07-28T01:37:31.089Z,86.31
2016-07-28T01:38:31.083Z,86.18
2016-07-28T01:39:31.075Z,85.98
2016-07-28T01:40:31.064Z,86.79
2016-07-28T01:42:31.054Z,86.79
2016-07-28T01:43:31.039Z,86.69
2016-07-28T01:44:31.750Z,86.79
2016-07-28T01:45:31.020Z,85.93
2016-07-28T01:46:31.726Z,86.56
2016-07-28T01:47:31.006Z,86.79
2016-07-28T01:48:30.997Z,87.18
2016-07-28T01:49:30.990Z,87.62
2016-07-28T01:50:31.689Z,87.42
2016-07-28T01:51:30.974Z,87.27
2016-07-28T01:52:31.685Z,86.99
2016-07-28T01:53:31.663Z,86.99
2016-07-28T01:54:30.950Z,87.37
2016-07-28T01:55:30.937Z,86.89
2016-07-28T01:57:30.924Z,87.08
2016-07-28T01:58:30.913Z,87.04
2016-07-28T01:59:30.908Z,86.99
2016-07-28T02:00:30.903Z,87.46
2016-07-28T02:01:30.890Z,86.99
2016-07-28T02:02:31.588Z,87.08
2016-07-28T02:03:30.879Z,86.51
2016-07-28T02:04:30.865Z,86.36
2016-07-28T02:05:30.865Z,87.18
2016-07-28T02:06:30.849Z,86.89
2016-07-28T02:07:30.842Z,86.41
2016-07-28T02:08:31.545Z,87.13
2016-07-28T02:09:30.824Z,86.65
2016-07-28T02:10:30.818Z,86.36
2016-07-28T02:12:30.799Z,86.85
2016-07-28T02:13:30.792Z,86.89
2016-07-28T02:14:31.492Z,86.85
2016-07-28T02:15:31.486Z,87.13
2016-07-28T02:16:30.770Z,86.85
2016-07-28T02:17:31.466Z,87.42
2016-07-28T02:18:30.752Z,87.13
2016-07-28T02:19:30.744Z,87.23
2016-07-28T02:20:30.740Z,87.13
2016-07-28T02:21:30.722Z,87.66
2016-07-28T02:22:30.718Z,87.04
2016-07-28T02:23:30.711Z,87.18
2016-07-28T02:24:31.407Z,87.23
2016-07-28T02:25:30.697Z,87.42
2016-07-28T02:27:30.677Z,87.23
2016-07-28T02:28:30.668Z,86.94
2016-07-28T02:29:31.367Z,87.52
2016-07-28T02:30:30.650Z,87.62
2016-07-28T02:31:31.353Z,87.71
2016-07-28T02:32:30.636Z,88
2016-07-28T02:33:30.625Z,88
2016-07-28T02:34:31.325Z,87.52
2016-07-28T02:35:30.608Z,88.96
2016-07-28T02:36:30.602Z,87.71
2016-07-28T02:37:30.597Z,87.9
2016-07-28T02:38:30.592Z,87.71
2016-07-28T02:39:30.574Z,87.71
2016-07-28T02:40:30.568Z,87.9
2016-07-28T02:41:30.559Z,87.9
2016-07-28T02:42:30.552Z,88.19
2016-07-28T02:43:31.251Z,88.19
2016-07-28T02:44:30.535Z,87.81
2016-07-28T02:45:30.528Z,87.9
2016-07-28T02:46:30.516Z,88.19
2016-07-28T02:47:30.718Z,88.29
2016-07-28T02:48:31.211Z,88.39
2016-07-28T02:49:31.202Z,88.29
2016-07-28T02:50:30.485Z,88.39
2016-07-28T02:51:30.480Z,88.29
2016-07-28T02:52:30.470Z,88.39
2016-07-28T02:53:30.460Z,88.29
2016-07-28T02:54:30.453Z,88.77
2016-07-28T02:55:30.444Z,88.77
2016-07-28T02:56:30.436Z,88.87
2016-07-28T02:57:30.427Z,88.19
2016-07-28T02:58:31.128Z,88.39
2016-07-28T02:59:30.414Z,88.39
2016-07-28T03:00:31.111Z,88.57
2016-07-28T03:01:31.102Z,88.77
2016-07-28T03:02:30.383Z,89.06
2016-07-28T03:03:30.379Z,89.35
2016-07-28T03:04:30.371Z,89.15
2016-07-28T03:05:30.360Z,88.87
2016-07-28T03:06:30.351Z,89.73
2016-07-28T03:07:30.342Z,89.64
2016-07-28T03:08:31.048Z,89.73
2016-07-28T03:09:30.330Z,89.83
2016-07-28T03:10:30.322Z,89.73
2016-07-28T03:11:31.021Z,89.78
2016-07-28T03:12:31.013Z,90.26
2016-07-28T03:13:30.293Z,90.21
2016-07-28T03:14:30.291Z,90.5
2016-07-28T03:15:30.275Z,89.98
2016-07-28T03:16:30.268Z,90.26
2016-07-28T03:17:30.259Z,89.59
2016-07-28T03:18:30.258Z,89.59
2016-07-28T03:19:30.248Z,90.36
2016-07-28T03:20:30.942Z,90.55
2016-07-28T03:21:30.228Z,90.45
2016-07-28T03:22:30.928Z,90.55
2016-07-28T03:23:30.207Z,90.36
2016-07-28T03:24:30.203Z,90.36
2016-07-28T03:25:30.899Z,90.55
2016-07-28T03:26:30.190Z,90.36
2016-07-28T03:27:30.176Z,90.45
2016-07-28T03:28:30.170Z,90.41
2016-07-28T03:29:30.158Z,90.55
2016-07-28T03:30:30.156Z,90.17
2016-07-28T03:31:30.143Z,90.84
2016-07-28T03:32:30.841Z,90.84
2016-07-28T03:33:30.835Z,90.55
2016-07-28T03:34:30.824Z,91.13
2016-07-28T03:35:30.111Z,90.75
2016-07-28T03:36:30.101Z,90.84
2016-07-28T03:37:30.800Z,91.03
2016-07-28T03:38:30.795Z,91.13
2016-07-28T03:39:30.077Z,91.13
2016-07-28T03:40:30.775Z,91.22
2016-07-28T03:41:30.768Z,91.52
2016-07-28T03:42:30.759Z,91.13
2016-07-28T03:43:30.045Z,91.22
2016-07-28T03:44:30.740Z,91.03
2016-07-28T03:45:30.732Z,91.52
2016-07-28T03:46:30.726Z,91.13
2016-07-28T03:47:30.715Z,91.13
2016-07-28T03:48:30.758Z,91.22
2016-07-28T03:49:29.994Z,91.52
2016-07-28T03:50:30.696Z,91.32
2016-07-28T03:51:30.695Z,91.9
2016-07-28T03:52:29.967Z,91.32
2016-07-28T03:53:29.959Z,91.42
2016-07-28T03:54:29.948Z,91.8
2016-07-28T03:55:29.947Z,91.52
2016-07-28T03:56:30.641Z,91.8
2016-07-28T03:57:30.633Z,91.52
2016-07-28T03:58:29.914Z,91.61
2016-07-28T03:59:30.612Z,91.42
2016-07-28T04:00:29.897Z,91.71
2016-07-28T04:01:30.605Z,91.61
2016-07-28T04:02:29.879Z,92.09
2016-07-28T04:03:29.873Z,91.42
2016-07-28T04:04:30.571Z,91.71
2016-07-28T04:05:29.857Z,91.75
2016-07-28T04:06:29.844Z,91.61
2016-07-28T04:07:29.854Z,91.32
2016-07-28T04:08:30.536Z,91.13
2016-07-28T04:09:29.820Z,91.13
2016-07-28T04:10:29.813Z,91.32
2016-07-28T04:11:29.804Z,91.13
2016-07-28T04:12:29.794Z,91.42
2016-07-28T04:13:29.789Z,91.32
2016-07-28T04:14:30.488Z,91.03
2016-07-28T04:15:29.769Z,91.13
2016-07-28T04:16:29.770Z,91.42
2016-07-28T04:17:29.756Z,91.32
2016-07-28T04:18:30.454Z,91.42
2016-07-28T04:19:29.738Z,91.8
2016-07-28T04:20:30.434Z,91.32
2016-07-28T04:21:30.435Z,91.52
2016-07-28T04:22:29.717Z,91.52
2016-07-28T04:23:29.703Z,91.13
2016-07-28T04:24:29.697Z,91.13
2016-07-28T04:25:29.691Z,90.94
2016-07-28T04:26:30.387Z,90.84
2016-07-28T04:27:29.677Z,91.32
2016-07-28T04:28:29.667Z,91.03
2016-07-28T04:29:30.359Z,90.75
2016-07-28T04:30:29.646Z,90.94
2016-07-28T04:31:29.637Z,90.75
2016-07-28T04:32:29.632Z,91.42
2016-07-28T04:33:29.619Z,91.32
2016-07-28T04:34:29.612Z,91.32
2016-07-28T04:35:29.601Z,91.52
2016-07-28T04:36:29.592Z,91.32
2016-07-28T04:37:29.587Z,91.32
2016-07-28T04:38:29.579Z,91.71
2016-07-28T04:39:30.273Z,91.32
2016-07-28T04:40:29.567Z,91.71
2016-07-28T04:41:30.256Z,91.61
2016-07-28T04:43:29.583Z,91.71
2016-07-28T04:44:29.532Z,91.61
2016-07-28T04:45:29.518Z,91.32
2016-07-28T04:46:30.221Z,91.61
2016-07-28T04:47:29.752Z,91.8
2016-07-28T04:48:29.492Z,91.22
2016-07-28T04:49:29.488Z,91.42
2016-07-28T04:50:29.476Z,91.13
2016-07-28T04:51:29.471Z,91.42
2016-07-28T04:52:29.455Z,91.52
2016-07-28T04:53:30.272Z,91.42
2016-07-28T04:54:30.171Z,91.8
2016-07-28T04:55:29.433Z,91.22
2016-07-28T04:56:29.428Z,91.03
2016-07-28T04:57:29.432Z,90.94
2016-07-28T04:58:29.404Z,90.94
2016-07-28T04:59:29.399Z,91.52
2016-07-28T05:00:29.391Z,91.42
2016-07-28T05:01:30.087Z,91.52
2016-07-28T05:02:30.077Z,91.13
2016-07-28T05:03:30.075Z,91.32
2016-07-28T05:04:30.063Z,91.52
2016-07-28T05:05:30.086Z,91.42
2016-07-28T05:06:30.054Z,91.9
2016-07-28T05:07:30.043Z,91.75
2016-07-28T05:08:30.031Z,91.56
2016-07-28T05:09:29.314Z,91.46
2016-07-28T05:10:29.302Z,91.17
2016-07-28T05:11:30.008Z,91.08
2016-07-28T05:12:29.275Z,91.36
2016-07-28T05:13:29.279Z,91.36
2016-07-28T05:14:29.270Z,90.79
2016-07-28T05:15:29.262Z,90.98
2016-07-28T05:16:29.257Z,90.59
2016-07-28T05:17:29.953Z,90.5
2016-07-28T05:18:29.944Z,90.12
2016-07-28T05:19:29.934Z,90.07
2016-07-28T05:20:29.222Z,90.36
2016-07-28T05:21:29.222Z,90.31
2016-07-28T05:22:29.215Z,90.21
2016-07-28T05:23:29.199Z,90.21
2016-07-28T05:24:29.898Z,90.41
2016-07-28T05:25:29.886Z,90.36
2016-07-28T05:26:29.168Z,90.21
2016-07-28T05:28:29.863Z,90.5
2016-07-28T05:29:29.849Z,90.41
2016-07-28T05:30:29.137Z,90.21
2016-07-28T05:31:29.129Z,90.26
2016-07-28T05:32:29.828Z,90.69
2016-07-28T05:33:29.111Z,90.5
2016-07-28T05:34:29.825Z,90.41
2016-07-28T05:35:30.015Z,90.31
2016-07-28T05:36:29.090Z,90.31
2016-07-28T05:37:29.078Z,90.75
2016-07-28T05:38:29.070Z,90.69
2016-07-28T05:39:29.771Z,90.89
2016-07-28T05:40:29.054Z,90.98
2016-07-28T05:41:29.046Z,90.21
2016-07-28T05:43:29.035Z,91.46
2016-07-28T05:44:29.729Z,90.89
2016-07-28T05:45:29.719Z,90.98
2016-07-28T05:46:29.713Z,90.59
2016-07-28T05:47:29.705Z,90.98
2016-07-28T05:48:28.987Z,90.89
2016-07-28T05:49:29.686Z,90.41
2016-07-28T05:51:29.680Z,90.41
2016-07-28T05:52:28.956Z,90.5
2016-07-28T05:53:28.945Z,90.5
2016-07-28T05:54:28.940Z,90.98
2016-07-28T05:55:28.929Z,91.17
2016-07-28T05:56:28.921Z,90.98
2016-07-28T05:57:28.914Z,90.69
2016-07-28T05:58:29.612Z,91.17
2016-07-28T05:59:28.897Z,90.89
2016-07-28T06:00:29.596Z,91.75
2016-07-28T06:01:28.877Z,91.27
2016-07-28T06:02:28.873Z,91.46
2016-07-28T06:03:28.861Z,90.98
2016-07-28T06:04:29.560Z,91.75
2016-07-28T06:05:29.560Z,92.04
2016-07-28T06:06:28.836Z,91.94
2016-07-28T06:07:28.830Z,92.23
2016-07-28T06:08:28.821Z,92.52
2016-07-28T06:09:28.813Z,92.61
2016-07-28T06:10:29.512Z,93.19
2016-07-28T06:11:28.797Z,92.71
2016-07-28T06:12:28.787Z,92.33
2016-07-28T06:13:28.780Z,92.71
2016-07-28T06:14:29.478Z,92.33
2016-07-28T06:15:28.762Z,93.1
2016-07-28T06:16:29.460Z,93.29
2016-07-28T06:17:29.453Z,93.58
2016-07-28T06:18:28.738Z,93.1
2016-07-28T06:19:28.726Z,93.1
2016-07-28T06:20:28.721Z,93.77
2016-07-28T06:21:29.419Z,93.87
2016-07-28T06:22:28.702Z,93.77
2016-07-28T06:23:28.698Z,93.05
2016-07-28T06:24:29.396Z,93
2016-07-28T06:25:28.682Z,93.1
2016-07-28T06:26:29.377Z,93.33
2016-07-28T06:27:28.662Z,93.43
2016-07-28T06:28:29.364Z,92.38
2016-07-28T06:29:29.352Z,91.7
2016-07-28T06:30:28.640Z,90.93
2016-07-28T06:31:28.631Z,91.13
2016-07-28T06:32:29.327Z,91.22
2016-07-28T06:33:28.633Z,91.13
2016-07-28T06:34:28.605Z,91.22
2016-07-28T06:35:28.600Z,91.13
2016-07-28T06:36:29.295Z,91.13
2016-07-28T06:37:28.581Z,90.97
2016-07-28T06:38:28.577Z,90.93
2016-07-28T06:39:29.274Z,91.31
2016-07-28T06:40:29.269Z,90.69
2016-07-28T06:41:29.263Z,90.69
2016-07-28T06:42:29.250Z,90.83
2016-07-28T06:43:28.537Z,90.11
2016-07-28T06:44:28.529Z,89.53
2016-07-28T06:45:29.232Z,90.2
2016-07-28T06:46:29.222Z,90.11
2016-07-28T06:47:28.512Z,90.11
2016-07-28T06:48:29.208Z,89.92
2016-07-28T06:49:29.196Z,89.92
2016-07-28T06:50:29.188Z,89.82
2016-07-28T06:51:28.476Z,88.95
2016-07-28T06:52:28.469Z,88.76
2016-07-28T06:53:28.460Z,89.15
2016-07-28T06:54:28.452Z,89.05
2016-07-28T06:55:28.446Z,88.67
2016-07-28T06:56:28.441Z,88.28
2016-07-28T06:57:29.187Z,88.67
2016-07-28T06:58:29.130Z,88.95
2016-07-28T06:59:29.127Z,89.15
2016-07-28T07:00:29.126Z,89.05
2016-07-28T07:01:28.397Z,89.05
2016-07-28T07:02:29.106Z,87.99
2016-07-28T07:03:28.385Z,88.18
2016-07-28T07:04:28.376Z,87.6
2016-07-28T07:05:29.076Z,87.8
2016-07-28T07:06:29.071Z,87.99
2016-07-28T07:07:28.357Z,87.22
2016-07-28T07:08:28.346Z,87.32
2016-07-28T07:09:29.043Z,87.9
2016-07-28T07:10:28.328Z,88.09
2016-07-28T07:11:28.323Z,88.18
2016-07-28T07:12:28.313Z,88.09
2016-07-28T07:13:29.018Z,87.94
2016-07-28T07:14:28.306Z,87.46
2016-07-28T07:15:29.001Z,86.98
2016-07-28T07:16:28.990Z,87.46
2016-07-28T07:17:28.279Z,87.46
2016-07-28T07:18:28.268Z,86.98
2016-07-28T07:19:28.260Z,86.88
2016-07-28T07:20:28.962Z,86.88
2016-07-28T07:21:28.245Z,86.88
2016-07-28T07:22:28.947Z,87.07
2016-07-28T07:23:28.236Z,87.26
2016-07-28T07:24:28.932Z,87.26
2016-07-28T07:25:28.219Z,86.49
2016-07-28T07:26:28.210Z,86.4
2016-07-28T07:27:28.911Z,86.59
2016-07-28T07:28:28.191Z,86.78
2016-07-28T07:29:28.896Z,86.01
2016-07-28T07:30:28.178Z,86.59
2016-07-28T07:31:28.875Z,86.98
2016-07-28T07:32:28.868Z,87.03
2016-07-28T07:33:28.155Z,86.45
2016-07-28T07:34:28.146Z,87.03
2016-07-28T07:35:28.140Z,86.65
2016-07-28T07:36:28.134Z,87.03
2016-07-28T07:37:28.128Z,87.12
2016-07-28T07:38:28.119Z,87.6
2016-07-28T07:39:28.811Z,87.32
2016-07-28T07:40:28.806Z,87.32
2016-07-28T07:41:28.090Z,87.51
2016-07-28T07:42:28.792Z,87.6
2016-07-28T07:43:28.787Z,87.51
2016-07-28T07:44:28.071Z,87.6
2016-07-28T07:45:28.768Z,87.6
2016-07-28T07:46:28.065Z,87.32
2016-07-28T07:47:28.044Z,87.03
2016-07-28T07:48:28.042Z,87.6
2016-07-28T07:49:28.739Z,87.7
2016-07-28T07:50:28.730Z,87.41
2016-07-28T07:51:28.721Z,87.32
2016-07-28T07:52:28.712Z,87.41
2016-07-28T07:53:28.006Z,87.7
2016-07-28T07:54:27.989Z,87.7
2016-07-28T07:55:27.987Z,87.32
2016-07-28T07:56:27.975Z,87.32
2016-07-28T07:57:27.967Z,87.94
2016-07-28T07:58:27.956Z,87.8
2016-07-28T07:59:27.953Z,87.51
2016-07-28T08:00:27.941Z,87.36
2016-07-28T08:01:27.934Z,87.65
2016-07-28T08:02:27.928Z,87.55
2016-07-28T08:03:27.919Z,87.36
2016-07-28T08:04:27.911Z,86.88
2016-07-28T08:05:27.908Z,86.3
2016-07-28T08:06:28.603Z,86.69
2016-07-28T08:07:27.888Z,86.49
2016-07-28T08:08:27.880Z,87.07
2016-07-28T08:09:28.580Z,87.7
2016-07-28T08:10:28.577Z,87.26
2016-07-28T08:11:27.856Z,86.98
2016-07-28T08:12:28.559Z,87.17
2016-07-28T08:13:27.845Z,86.78
2016-07-28T08:14:27.834Z,86.78
2016-07-28T08:15:28.534Z,86.88
2016-07-28T08:16:28.523Z,86.59
2016-07-28T08:17:27.815Z,86.69
2016-07-28T08:18:27.804Z,86.88
2016-07-28T08:19:27.801Z,86.69
2016-07-28T08:20:27.789Z,86.4
2016-07-28T08:21:28.484Z,86.49
2016-07-28T08:22:27.775Z,86.3
2016-07-28T08:23:27.773Z,86.49
2016-07-28T08:24:28.464Z,86.88
2016-07-28T08:25:27.755Z,86.59
2016-07-28T08:26:28.453Z,87.07
2016-07-28T08:27:28.443Z,86.4
2016-07-28T08:28:27.731Z,85.82
2016-07-28T08:29:27.720Z,86.11
2016-07-28T08:30:27.719Z,86.49
2016-07-28T08:31:27.705Z,85.91
2016-07-28T08:32:28.403Z,86.11
2016-07-28T08:33:27.690Z,86.21
2016-07-28T08:34:28.392Z,86.21
2016-07-28T08:35:28.397Z,85.72
2016-07-28T08:36:28.377Z,85.77
2016-07-28T08:37:28.363Z,85.77
2016-07-28T08:38:28.359Z,85.47
2016-07-28T08:39:28.365Z,85.57
2016-07-28T08:40:28.344Z,83.94
2016-07-28T08:41:28.336Z,84.42
2016-07-28T08:42:28.326Z,85.28
2016-07-28T08:43:27.615Z,84.9
2016-07-28T08:44:28.313Z,84.7
2016-07-28T08:45:28.307Z,85.28
2016-07-28T08:46:28.302Z,84.7
2016-07-28T08:47:27.583Z,84.8
2016-07-28T08:48:27.778Z,84.22
2016-07-28T08:49:28.275Z,84.8
2016-07-28T08:50:28.270Z,84.55
2016-07-28T08:51:27.552Z,84.75
2016-07-28T08:52:27.549Z,83.88
2016-07-28T08:53:27.539Z,82.43
2016-07-28T08:54:27.530Z,82.86
2016-07-28T08:55:27.526Z,82.38
2016-07-28T08:56:28.226Z,81.84
2016-07-28T08:57:27.511Z,81.84
2016-07-28T08:58:27.506Z,81.65
2016-07-28T08:59:28.201Z,80.97
2016-07-28T09:00:27.491Z,81.74
2016-07-28T09:01:28.197Z,81.65
2016-07-28T09:02:27.478Z,81.84
2016-07-28T09:03:27.472Z,81.07
2016-07-28T09:04:27.461Z,81.6
2016-07-28T09:05:27.456Z,81.99
2016-07-28T09:06:27.446Z,82.28
2016-07-28T09:07:27.450Z,81.57
2016-07-28T09:08:27.433Z,83.01
2016-07-28T09:09:27.429Z,82.53
2016-07-28T09:10:28.132Z,82.05
2016-07-28T09:11:27.414Z,82.43
2016-07-28T09:12:27.409Z,82.24
2016-07-28T09:13:28.109Z,82.92
2016-07-28T09:14:28.102Z,83.64
2016-07-28T09:15:27.383Z,83.36
2016-07-28T09:16:27.378Z,83.64
2016-07-28T09:17:28.079Z,83.26
2016-07-28T09:18:27.362Z,83.64
2016-07-28T09:19:27.358Z,83.84
2016-07-28T09:20:27.348Z,83.94
2016-07-28T09:21:28.048Z,83.84
2016-07-28T09:22:27.336Z,83.84
2016-07-28T09:23:27.326Z,84.03
2016-07-28T09:24:27.324Z,83.55
2016-07-28T09:25:27.311Z,83.94
2016-07-28T09:26:28.012Z,83.55
2016-07-28T09:27:28.006Z,83.64
2016-07-28T09:29:27.988Z,84.03
2016-07-28T09:30:27.982Z,83.45
2016-07-28T09:31:27.973Z,84.03
2016-07-28T09:32:27.257Z,84.12
2016-07-28T09:33:27.258Z,83.64
2016-07-28T09:34:27.245Z,83.74
2016-07-28T09:35:27.234Z,83.74
2016-07-28T09:36:27.941Z,83.94
2016-07-28T09:37:27.222Z,83.36
2016-07-28T09:38:27.214Z,83.36
2016-07-28T09:39:27.204Z,84.03
2016-07-28T09:40:27.904Z,83.36
2016-07-28T09:41:27.905Z,83.45
2016-07-28T09:42:27.183Z,82.53
2016-07-28T09:44:27.166Z,83.59
2016-07-28T09:45:27.158Z,82.53
2016-07-28T09:46:27.153Z,83.59
2016-07-28T09:47:27.146Z,83.5
2016-07-28T09:48:27.143Z,83.69
2016-07-28T09:49:27.841Z,84.03
2016-07-28T09:50:27.124Z,83.3
2016-07-28T09:51:27.119Z,83.69
2016-07-28T09:52:27.113Z,83.45
2016-07-28T09:53:27.808Z,84.42
2016-07-28T09:54:27.800Z,84.32
2016-07-28T09:55:27.085Z,84.42
2016-07-28T09:56:27.785Z,84.03
2016-07-28T09:57:27.074Z,84.52
2016-07-28T09:59:27.060Z,84.32
2016-07-28T10:00:27.762Z,84.9
2016-07-28T10:01:27.749Z,85.96
2016-07-28T10:02:27.035Z,85.47
2016-07-28T10:03:27.026Z,85.38
2016-07-28T10:04:27.729Z,85.86
2016-07-28T10:05:27.014Z,86.05
2016-07-28T10:06:27.712Z,86.05
2016-07-28T10:07:26.998Z,86.35
2016-07-28T10:08:26.995Z,86.82
2016-07-28T10:09:26.982Z,85.86
2016-07-28T10:10:27.682Z,86.35
2016-07-28T10:11:26.968Z,84.8
2016-07-28T10:12:27.668Z,85.67
2016-07-28T10:14:26.947Z,85.09
2016-07-28T10:15:26.937Z,84.65
2016-07-28T10:16:27.638Z,84.84
2016-07-28T10:17:26.928Z,85.52
2016-07-28T10:18:26.915Z,85.42
2016-07-28T10:19:27.617Z,85.13
2016-07-28T10:20:26.900Z,84.65
2016-07-28T10:21:27.601Z,84.75
2016-07-28T10:22:26.883Z,84.75
2016-07-28T10:23:27.586Z,84.84
2016-07-28T10:24:26.871Z,84.65
2016-07-28T10:25:26.866Z,84.8
2016-07-28T10:26:27.569Z,85.38
2016-07-28T10:27:27.554Z,85.19
2016-07-28T10:29:26.835Z,85.57
2016-07-28T10:30:27.534Z,85.86
2016-07-28T10:31:27.527Z,86.05
2016-07-28T10:32:26.823Z,86.54
2016-07-28T10:34:26.795Z,85.82
2016-07-28T10:35:26.790Z,86.05
2016-07-28T10:36:26.786Z,85.96
2016-07-28T10:37:27.481Z,86.15
2016-07-28T10:38:26.770Z,86.25
2016-07-28T10:39:26.759Z,86.54
2016-07-28T10:40:26.752Z,86.44
2016-07-28T10:41:27.454Z,86.44
2016-07-28T10:42:26.748Z,86.54
2016-07-28T10:44:27.428Z,86.92
2016-07-28T10:45:27.418Z,86.92
2016-07-28T10:46:26.709Z,87.6
2016-07-28T10:47:27.406Z,87.4
2016-07-28T10:48:26.892Z,87.79
2016-07-28T10:49:26.682Z,88.27
2016-07-28T10:50:26.675Z,89.19
2016-07-28T10:51:27.374Z,88.95
2016-07-28T10:52:26.659Z,89.43
2016-07-28T10:53:27.362Z,88.75
2016-07-28T10:54:26.645Z,88.51
2016-07-28T10:55:27.344Z,88.61
2016-07-28T10:56:27.342Z,88.9
2016-07-28T10:57:26.624Z,88.81
2016-07-28T10:58:26.617Z,88.42
2016-07-28T10:59:26.607Z,87.36
2016-07-28T11:00:26.605Z,87.55
2016-07-28T11:01:26.596Z,87.98
2016-07-28T11:02:26.583Z,87.12
2016-07-28T11:03:26.576Z,87.02
2016-07-28T11:04:27.276Z,87.4
2016-07-28T11:05:26.563Z,87.02
2016-07-28T11:06:26.554Z,86.15
2016-07-28T11:07:26.544Z,85.77
2016-07-28T11:08:27.245Z,86.25
2016-07-28T11:09:26.530Z,85.86
2016-07-28T11:10:27.230Z,84.84
2016-07-28T11:11:26.520Z,84.07
2016-07-28T11:12:27.215Z,84.55
2016-07-28T11:14:26.493Z,85.23
2016-07-28T11:15:26.491Z,84.75
2016-07-28T11:16:26.481Z,85.23
2016-07-28T11:17:27.178Z,86
2016-07-28T11:18:26.467Z,85.03
2016-07-28T11:19:27.170Z,85.71
2016-07-28T11:20:27.159Z,86
2016-07-28T11:21:27.153Z,84.65
2016-07-28T11:22:26.441Z,84.84
2016-07-28T11:23:27.145Z,84.46
2016-07-28T11:24:26.422Z,84.55
2016-07-28T11:25:26.416Z,84.65
2016-07-28T11:26:26.407Z,83.92
2016-07-28T11:27:26.405Z,83.73
2016-07-28T11:28:27.104Z,83.39
2016-07-28T11:29:26.386Z,82.61
2016-07-28T11:30:27.089Z,82.71
2016-07-28T11:31:26.379Z,82.23
2016-07-28T11:32:27.073Z,82.07
2016-07-28T11:33:27.068Z,81.98
2016-07-28T11:34:27.065Z,82.36
2016-07-28T11:35:27.055Z,81.2
2016-07-28T11:36:27.051Z,81.49
2016-07-28T11:37:26.335Z,81.88
2016-07-28T11:38:26.327Z,81.53
2016-07-28T11:39:26.324Z,80.18
2016-07-28T11:40:27.023Z,79.35
2016-07-28T11:41:26.312Z,79.64
2016-07-28T11:42:27.013Z,80.12
2016-07-28T11:43:26.299Z,79.93
2016-07-28T11:44:27.008Z,78.48
2016-07-28T11:45:26.994Z,79.06
2016-07-28T11:46:26.989Z,78.58
2016-07-28T11:47:26.277Z,78.42
2016-07-28T11:48:26.270Z,78.33
2016-07-28T11:49:26.974Z,78.58
2016-07-28T11:50:26.259Z,78.38
2016-07-28T11:51:26.253Z,77.71
2016-07-28T11:52:26.957Z,78
2016-07-28T11:53:26.240Z,78.19
2016-07-28T11:54:26.238Z,77.9
2016-07-28T11:55:26.234Z,77.94
2016-07-28T11:56:26.230Z,78
2016-07-28T11:57:26.923Z,77.9
2016-07-28T11:58:26.214Z,77.13
2016-07-28T11:59:26.914Z,76.35
2016-07-28T12:00:26.206Z,76.06
2016-07-28T12:01:26.196Z,77.03
2016-07-28T12:02:26.194Z,76.84
2016-07-28T12:03:26.186Z,76.55
2016-07-28T12:04:26.177Z,76.59
2016-07-28T12:05:26.175Z,76.59
2016-07-28T12:06:26.168Z,74.88
2016-07-28T12:07:26.163Z,74.53
2016-07-28T12:08:26.157Z,74.66
2016-07-28T12:09:26.861Z,72.47
2016-07-28T12:10:26.149Z,72.67
2016-07-28T12:11:26.144Z,71.58
2016-07-28T12:12:26.139Z,69.73
2016-07-28T12:13:26.841Z,69.86
2016-07-28T12:14:26.836Z,68.79
2016-07-28T12:15:26.126Z,68.79
2016-07-28T12:16:26.132Z,69.44
2016-07-28T12:17:26.121Z,70.8
2016-07-28T12:18:26.825Z,70.03
2016-07-28T12:19:26.114Z,72.22
2016-07-28T12:20:26.106Z,71.02
2016-07-28T12:21:26.108Z,71.41
2016-07-28T12:22:26.106Z,71.95
2016-07-28T12:23:26.108Z,72.63
2016-07-28T12:24:26.096Z,71.86
2016-07-28T12:25:26.093Z,71.76
2016-07-28T12:26:27.306Z,72.73
2016-07-28T12:27:26.788Z,72.24
2016-07-28T12:28:26.095Z,73.41
2016-07-28T12:29:26.073Z,73.5
2016-07-28T12:30:26.778Z,71.47
2016-07-28T12:31:26.067Z,71.54
2016-07-28T12:32:26.769Z,71.93
2016-07-28T12:33:26.766Z,70.57
2016-07-28T12:34:26.758Z,71.64
2016-07-28T12:35:26.111Z,71.6
2016-07-28T12:36:26.045Z,72.44
2016-07-28T12:37:26.042Z,72.53
2016-07-28T12:38:26.046Z,71.86
2016-07-28T12:39:26.034Z,72.4
2016-07-28T12:40:26.081Z,72.5
2016-07-28T12:41:26.024Z,72.24
2016-07-28T12:42:26.022Z,71.95
2016-07-28T12:43:26.730Z,68.79
2016-07-28T12:44:26.013Z,67.92
2016-07-28T12:45:26.715Z,69.21
2016-07-28T12:46:26.764Z,69.64
2016-07-28T12:47:26.004Z,68.08
2016-07-28T12:48:26.250Z,69.15
2016-07-28T12:49:25.996Z,69.99
2016-07-28T12:50:26.701Z,70.76
2016-07-28T12:51:25.985Z,70.34
2016-07-28T12:52:26.704Z,70.54
2016-07-28T12:53:25.978Z,70.15
2016-07-28T12:54:25.976Z,70.7
2016-07-28T12:55:25.972Z,72.24
2016-07-28T12:56:25.969Z,71.86
2016-07-28T12:57:26.014Z,72.92
2016-07-28T12:58:25.959Z,72.63
2016-07-28T12:59:26.663Z,72.86
2016-07-28T13:00:25.948Z,73.35
2016-07-28T13:01:26.670Z,72.53
2016-07-28T13:02:26.712Z,73.85
2016-07-28T13:03:25.937Z,73.85
2016-07-28T13:04:26.650Z,74.53
2016-07-28T13:05:25.932Z,74.15
2016-07-28T13:06:25.922Z,74.43
2016-07-28T13:07:25.919Z,73.85
2016-07-28T13:08:26.625Z,74.49
2016-07-28T13:09:25.909Z,73.72
2016-07-28T13:10:25.903Z,74.49
2016-07-28T13:11:26.605Z,74.11
2016-07-28T13:12:25.893Z,74.4
2016-07-28T13:13:26.643Z,73.72
2016-07-28T13:14:26.586Z,73.43